sensor_id;sensor_type;location;lat;lon;timestamp;P1;durP1;ratioP1;P2;durP2;ratioP2
24151;SDS011;12311;50.866;4.332;2023-08-08T00:01:01;4.10;;;1.20;;
24151;SDS011;12311;50.866;4.332;2023-08-08T00:03:27;1.67;;;0.95;;
24151;SDS011;12311;50.866;4.332;2023-08-08T00:05:53;1.95;;;0.57;;
24151;SDS011;12311;50.866;4.332;2023-08-08T00:08:18;4.57;;;1.00;;
24151;SDS011;12311;50.866;4.332;2023-08-08T00:10:44;4.95;;;1.58;;
24151;SDS011;12311;50.866;4.332;2023-08-08T00:13:10;2.65;;;1.08;;
24151;SDS011;12311;50.866;4.332;2023-08-08T00:15:35;3.10;;;1.13;;
24151;SDS011;12311;50.866;4.332;2023-08-08T00:18:01;1.30;;;0.98;;
24151;SDS011;12311;50.866;4.332;2023-08-08T00:20:28;1.90;;;1.13;;
24151;SDS011;12311;50.866;4.332;2023-08-08T00:22:54;3.08;;;0.80;;
24151;SDS011;12311;50.866;4.332;2023-08-08T00:25:19;2.60;;;0.80;;
24151;SDS011;12311;50.866;4.332;2023-08-08T00:27:45;3.15;;;1.13;;
24151;SDS011;12311;50.866;4.332;2023-08-08T00:30:11;1.77;;;0.90;;
24151;SDS011;12311;50.866;4.332;2023-08-08T00:32:38;1.63;;;1.25;;
24151;SDS011;12311;50.866;4.332;2023-08-08T00:35:04;2.83;;;1.08;;
24151;SDS011;12311;50.866;4.332;2023-08-08T00:37:30;2.70;;;1.20;;
24151;SDS011;12311;50.866;4.332;2023-08-08T00:39:55;2.55;;;1.75;;
24151;SDS011;12311;50.866;4.332;2023-08-08T00:42:21;4.45;;;1.30;;
24151;SDS011;12311;50.866;4.332;2023-08-08T00:44:47;5.95;;;1.08;;
24151;SDS011;12311;50.866;4.332;2023-08-08T00:47:13;0.98;;;0.88;;
24151;SDS011;12311;50.866;4.332;2023-08-08T00:49:38;4.43;;;1.00;;
24151;SDS011;12311;50.866;4.332;2023-08-08T00:52:06;1.80;;;1.20;;
24151;SDS011;12311;50.866;4.332;2023-08-08T00:54:32;3.20;;;1.40;;
24151;SDS011;12311;50.866;4.332;2023-08-08T00:56:58;1.77;;;0.80;;
24151;SDS011;12311;50.866;4.332;2023-08-08T00:59:24;2.22;;;1.42;;
24151;SDS011;12311;50.866;4.332;2023-08-08T01:01:50;2.17;;;1.02;;
24151;SDS011;12311;50.866;4.332;2023-08-08T01:04:16;1.55;;;1.08;;
24151;SDS011;12311;50.866;4.332;2023-08-08T01:09:27;4.00;;;0.90;;
24151;SDS011;12311;50.866;4.332;2023-08-08T01:11:59;1.95;;;1.00;;
24151;SDS011;12311;50.866;4.332;2023-08-08T01:14:27;1.98;;;1.00;;
24151;SDS011;12311;50.866;4.332;2023-08-08T01:16:54;2.83;;;0.90;;
24151;SDS011;12311;50.866;4.332;2023-08-08T01:19:27;2.17;;;1.02;;
24151;SDS011;12311;50.866;4.332;2023-08-08T01:24:23;2.00;;;1.02;;
24151;SDS011;12311;50.866;4.332;2023-08-08T01:26:52;1.45;;;1.02;;
24151;SDS011;12311;50.866;4.332;2023-08-08T01:29:18;5.00;;;1.65;;
24151;SDS011;12311;50.866;4.332;2023-08-08T01:31:44;2.05;;;1.15;;
24151;SDS011;12311;50.866;4.332;2023-08-08T01:34:10;2.35;;;0.85;;
24151;SDS011;12311;50.866;4.332;2023-08-08T01:36:48;6.15;;;1.10;;
24151;SDS011;12311;50.866;4.332;2023-08-08T01:39:22;2.50;;;1.35;;
24151;SDS011;12311;50.866;4.332;2023-08-08T01:41:51;1.38;;;0.80;;
24151;SDS011;12311;50.866;4.332;2023-08-08T01:44:19;2.28;;;1.20;;
24151;SDS011;12311;50.866;4.332;2023-08-08T01:46:46;4.47;;;1.92;;
24151;SDS011;12311;50.866;4.332;2023-08-08T01:49:12;2.03;;;1.23;;
24151;SDS011;12311;50.866;4.332;2023-08-08T01:51:38;2.92;;;1.30;;
24151;SDS011;12311;50.866;4.332;2023-08-08T01:54:04;3.05;;;1.23;;
24151;SDS011;12311;50.866;4.332;2023-08-08T01:56:29;2.95;;;1.30;;
24151;SDS011;12311;50.866;4.332;2023-08-08T01:58:55;3.95;;;1.20;;
24151;SDS011;12311;50.866;4.332;2023-08-08T02:01:21;2.33;;;1.63;;
24151;SDS011;12311;50.866;4.332;2023-08-08T02:03:47;2.90;;;1.15;;
24151;SDS011;12311;50.866;4.332;2023-08-08T02:06:13;1.88;;;0.98;;
24151;SDS011;12311;50.866;4.332;2023-08-08T02:08:38;2.30;;;1.42;;
24151;SDS011;12311;50.866;4.332;2023-08-08T02:11:04;3.80;;;1.52;;
24151;SDS011;12311;50.866;4.332;2023-08-08T02:13:30;2.58;;;1.15;;
24151;SDS011;12311;50.866;4.332;2023-08-08T02:15:55;2.88;;;1.63;;
24151;SDS011;12311;50.866;4.332;2023-08-08T02:18:21;3.75;;;1.40;;
24151;SDS011;12311;50.866;4.332;2023-08-08T02:20:47;2.03;;;0.75;;
24151;SDS011;12311;50.866;4.332;2023-08-08T02:23:12;1.83;;;1.05;;
24151;SDS011;12311;50.866;4.332;2023-08-08T02:25:38;2.38;;;0.80;;
24151;SDS011;12311;50.866;4.332;2023-08-08T02:28:04;5.32;;;1.30;;
24151;SDS011;12311;50.866;4.332;2023-08-08T02:30:30;4.82;;;1.30;;
24151;SDS011;12311;50.866;4.332;2023-08-08T02:32:56;1.65;;;0.70;;
24151;SDS011;12311;50.866;4.332;2023-08-08T02:35:21;2.47;;;1.38;;
24151;SDS011;12311;50.866;4.332;2023-08-08T02:37:47;4.43;;;0.93;;
24151;SDS011;12311;50.866;4.332;2023-08-08T02:40:13;2.67;;;0.95;;
24151;SDS011;12311;50.866;4.332;2023-08-08T02:42:38;2.17;;;1.42;;
24151;SDS011;12311;50.866;4.332;2023-08-08T02:45:04;4.07;;;1.40;;
24151;SDS011;12311;50.866;4.332;2023-08-08T02:47:30;2.42;;;1.20;;
24151;SDS011;12311;50.866;4.332;2023-08-08T02:49:56;2.03;;;0.90;;
24151;SDS011;12311;50.866;4.332;2023-08-08T02:52:22;1.88;;;1.30;;
24151;SDS011;12311;50.866;4.332;2023-08-08T02:54:48;3.97;;;2.00;;
24151;SDS011;12311;50.866;4.332;2023-08-08T02:57:13;2.45;;;1.08;;
24151;SDS011;12311;50.866;4.332;2023-08-08T02:59:39;1.65;;;1.27;;
24151;SDS011;12311;50.866;4.332;2023-08-08T03:02:05;4.80;;;1.10;;
24151;SDS011;12311;50.866;4.332;2023-08-08T03:04:30;2.70;;;1.10;;
24151;SDS011;12311;50.866;4.332;2023-08-08T03:06:56;2.97;;;1.20;;
24151;SDS011;12311;50.866;4.332;2023-08-08T03:09:22;1.90;;;1.00;;
24151;SDS011;12311;50.866;4.332;2023-08-08T03:11:47;3.05;;;1.35;;
24151;SDS011;12311;50.866;4.332;2023-08-08T03:14:13;2.35;;;1.75;;
24151;SDS011;12311;50.866;4.332;2023-08-08T03:16:39;5.60;;;1.45;;
24151;SDS011;12311;50.866;4.332;2023-08-08T03:19:04;3.80;;;1.42;;
24151;SDS011;12311;50.866;4.332;2023-08-08T03:21:30;4.35;;;1.80;;
24151;SDS011;12311;50.866;4.332;2023-08-08T03:23:56;3.80;;;1.40;;
24151;SDS011;12311;50.866;4.332;2023-08-08T03:26:23;12.15;;;1.45;;
24151;SDS011;12311;50.866;4.332;2023-08-08T03:28:49;2.58;;;1.23;;
24151;SDS011;12311;50.866;4.332;2023-08-08T03:31:16;1.92;;;1.38;;
24151;SDS011;12311;50.866;4.332;2023-08-08T03:33:42;6.97;;;2.22;;
24151;SDS011;12311;50.866;4.332;2023-08-08T03:36:09;3.40;;;1.30;;
24151;SDS011;12311;50.866;4.332;2023-08-08T03:38:34;2.33;;;1.67;;
24151;SDS011;12311;50.866;4.332;2023-08-08T03:41:01;11.02;;;3.05;;
24151;SDS011;12311;50.866;4.332;2023-08-08T03:43:27;5.18;;;1.65;;
24151;SDS011;12311;50.866;4.332;2023-08-08T03:45:52;5.18;;;1.75;;
24151;SDS011;12311;50.866;4.332;2023-08-08T03:48:18;3.08;;;1.42;;
24151;SDS011;12311;50.866;4.332;2023-08-08T03:50:43;3.00;;;1.77;;
24151;SDS011;12311;50.866;4.332;2023-08-08T03:53:11;6.45;;;1.42;;
24151;SDS011;12311;50.866;4.332;2023-08-08T03:55:37;6.28;;;1.20;;
24151;SDS011;12311;50.866;4.332;2023-08-08T03:58:03;4.75;;;1.30;;
24151;SDS011;12311;50.866;4.332;2023-08-08T04:00:29;7.78;;;1.42;;
24151;SDS011;12311;50.866;4.332;2023-08-08T04:02:54;2.28;;;1.02;;
24151;SDS011;12311;50.866;4.332;2023-08-08T04:05:20;3.10;;;1.52;;
24151;SDS011;12311;50.866;4.332;2023-08-08T04:07:45;8.23;;;1.63;;
24151;SDS011;12311;50.866;4.332;2023-08-08T04:10:11;2.88;;;1.42;;
24151;SDS011;12311;50.866;4.332;2023-08-08T04:12:38;4.90;;;1.45;;
24151;SDS011;12311;50.866;4.332;2023-08-08T04:15:03;1.92;;;1.02;;
24151;SDS011;12311;50.866;4.332;2023-08-08T04:17:30;2.28;;;1.15;;
24151;SDS011;12311;50.866;4.332;2023-08-08T04:19:58;2.63;;;1.42;;
24151;SDS011;12311;50.866;4.332;2023-08-08T04:22:27;3.40;;;1.13;;
24151;SDS011;12311;50.866;4.332;2023-08-08T04:24:53;4.55;;;1.98;;
24151;SDS011;12311;50.866;4.332;2023-08-08T04:27:18;3.63;;;1.42;;
24151;SDS011;12311;50.866;4.332;2023-08-08T04:29:44;4.13;;;1.80;;
24151;SDS011;12311;50.866;4.332;2023-08-08T04:32:10;3.50;;;1.70;;
24151;SDS011;12311;50.866;4.332;2023-08-08T04:34:35;8.63;;;1.80;;
24151;SDS011;12311;50.866;4.332;2023-08-08T04:37:01;4.35;;;1.20;;
24151;SDS011;12311;50.866;4.332;2023-08-08T04:39:27;2.40;;;1.23;;
24151;SDS011;12311;50.866;4.332;2023-08-08T04:41:52;5.82;;;1.45;;
24151;SDS011;12311;50.866;4.332;2023-08-08T04:44:18;5.13;;;1.33;;
24151;SDS011;12311;50.866;4.332;2023-08-08T04:46:44;6.63;;;1.27;;
24151;SDS011;12311;50.866;4.332;2023-08-08T04:49:10;7.00;;;1.63;;
24151;SDS011;12311;50.866;4.332;2023-08-08T04:51:35;8.20;;;2.17;;
24151;SDS011;12311;50.866;4.332;2023-08-08T04:54:01;3.38;;;1.90;;
24151;SDS011;12311;50.866;4.332;2023-08-08T04:56:27;2.00;;;0.90;;
24151;SDS011;12311;50.866;4.332;2023-08-08T04:58:53;12.63;;;1.90;;
24151;SDS011;12311;50.866;4.332;2023-08-08T05:01:19;9.15;;;1.48;;
24151;SDS011;12311;50.866;4.332;2023-08-08T05:03:45;5.93;;;1.17;;
24151;SDS011;12311;50.866;4.332;2023-08-08T05:06:11;6.85;;;1.75;;
24151;SDS011;12311;50.866;4.332;2023-08-08T05:08:37;2.42;;;1.60;;
24151;SDS011;12311;50.866;4.332;2023-08-08T05:11:02;6.63;;;1.85;;
24151;SDS011;12311;50.866;4.332;2023-08-08T05:13:28;2.67;;;1.48;;
24151;SDS011;12311;50.866;4.332;2023-08-08T05:15:54;4.75;;;1.08;;
24151;SDS011;12311;50.866;4.332;2023-08-08T05:18:19;2.60;;;1.20;;
24151;SDS011;12311;50.866;4.332;2023-08-08T05:20:45;2.35;;;1.52;;
24151;SDS011;12311;50.866;4.332;2023-08-08T05:23:11;5.28;;;1.77;;
24151;SDS011;12311;50.866;4.332;2023-08-08T05:25:36;2.65;;;1.02;;
24151;SDS011;12311;50.866;4.332;2023-08-08T05:28:02;9.70;;;1.55;;
24151;SDS011;12311;50.866;4.332;2023-08-08T05:30:28;3.45;;;1.27;;
24151;SDS011;12311;50.866;4.332;2023-08-08T05:32:53;2.83;;;1.58;;
24151;SDS011;12311;50.866;4.332;2023-08-08T05:35:19;2.80;;;1.30;;
24151;SDS011;12311;50.866;4.332;2023-08-08T05:37:45;4.20;;;1.85;;
24151;SDS011;12311;50.866;4.332;2023-08-08T05:40:10;4.85;;;1.42;;
24151;SDS011;12311;50.866;4.332;2023-08-08T05:42:39;2.95;;;1.35;;
24151;SDS011;12311;50.866;4.332;2023-08-08T05:45:05;2.70;;;1.38;;
24151;SDS011;12311;50.866;4.332;2023-08-08T05:47:32;5.38;;;1.40;;
24151;SDS011;12311;50.866;4.332;2023-08-08T05:49:58;1.63;;;1.08;;
24151;SDS011;12311;50.866;4.332;2023-08-08T05:52:23;7.18;;;1.10;;
24151;SDS011;12311;50.866;4.332;2023-08-08T05:54:49;2.35;;;1.25;;
24151;SDS011;12311;50.866;4.332;2023-08-08T05:57:15;8.05;;;1.90;;
24151;SDS011;12311;50.866;4.332;2023-08-08T05:59:40;5.38;;;1.58;;
24151;SDS011;12311;50.866;4.332;2023-08-08T06:02:06;4.95;;;1.45;;
24151;SDS011;12311;50.866;4.332;2023-08-08T06:04:31;2.38;;;1.10;;
24151;SDS011;12311;50.866;4.332;2023-08-08T06:06:57;3.28;;;1.58;;
24151;SDS011;12311;50.866;4.332;2023-08-08T06:09:23;9.45;;;1.27;;
24151;SDS011;12311;50.866;4.332;2023-08-08T06:11:49;2.80;;;1.17;;
24151;SDS011;12311;50.866;4.332;2023-08-08T06:14:15;5.47;;;1.58;;
24151;SDS011;12311;50.866;4.332;2023-08-08T06:16:42;5.82;;;2.05;;
24151;SDS011;12311;50.866;4.332;2023-08-08T06:19:07;6.97;;;1.58;;
24151;SDS011;12311;50.866;4.332;2023-08-08T06:21:33;3.88;;;1.10;;
24151;SDS011;12311;50.866;4.332;2023-08-08T06:24:00;2.17;;;1.40;;
24151;SDS011;12311;50.866;4.332;2023-08-08T06:26:26;1.73;;;1.48;;
24151;SDS011;12311;50.866;4.332;2023-08-08T06:28:51;5.93;;;1.23;;
24151;SDS011;12311;50.866;4.332;2023-08-08T06:31:18;8.38;;;1.20;;
24151;SDS011;12311;50.866;4.332;2023-08-08T06:33:44;5.07;;;0.98;;
24151;SDS011;12311;50.866;4.332;2023-08-08T06:36:09;1.45;;;1.00;;
24151;SDS011;12311;50.866;4.332;2023-08-08T06:38:35;2.58;;;1.30;;
24151;SDS011;12311;50.866;4.332;2023-08-08T06:41:04;3.72;;;0.82;;
24151;SDS011;12311;50.866;4.332;2023-08-08T06:43:30;3.85;;;1.13;;
24151;SDS011;12311;50.866;4.332;2023-08-08T06:45:56;2.33;;;0.93;;
24151;SDS011;12311;50.866;4.332;2023-08-08T06:48:21;1.95;;;1.25;;
24151;SDS011;12311;50.866;4.332;2023-08-08T06:50:47;2.45;;;1.10;;
24151;SDS011;12311;50.866;4.332;2023-08-08T06:53:13;1.45;;;0.75;;
24151;SDS011;12311;50.866;4.332;2023-08-08T06:55:39;4.10;;;1.55;;
24151;SDS011;12311;50.866;4.332;2023-08-08T06:58:04;4.00;;;0.88;;
24151;SDS011;12311;50.866;4.332;2023-08-08T07:00:30;4.93;;;0.98;;
24151;SDS011;12311;50.866;4.332;2023-08-08T07:02:56;4.78;;;0.90;;
24151;SDS011;12311;50.866;4.332;2023-08-08T07:05:22;6.32;;;1.27;;
24151;SDS011;12311;50.866;4.332;2023-08-08T07:07:51;1.38;;;1.23;;
24151;SDS011;12311;50.866;4.332;2023-08-08T07:10:17;3.85;;;1.65;;
24151;SDS011;12311;50.866;4.332;2023-08-08T07:12:43;8.45;;;1.10;;
24151;SDS011;12311;50.866;4.332;2023-08-08T07:15:09;8.70;;;1.38;;
24151;SDS011;12311;50.866;4.332;2023-08-08T07:17:35;3.00;;;1.13;;
24151;SDS011;12311;50.866;4.332;2023-08-08T07:20:01;6.35;;;1.20;;
24151;SDS011;12311;50.866;4.332;2023-08-08T07:22:27;1.65;;;1.15;;
24151;SDS011;12311;50.866;4.332;2023-08-08T07:24:53;7.30;;;1.10;;
24151;SDS011;12311;50.866;4.332;2023-08-08T07:27:19;2.92;;;1.05;;
24151;SDS011;12311;50.866;4.332;2023-08-08T07:29:45;1.90;;;1.08;;
24151;SDS011;12311;50.866;4.332;2023-08-08T07:32:10;4.57;;;1.00;;
24151;SDS011;12311;50.866;4.332;2023-08-08T07:34:36;3.75;;;1.73;;
24151;SDS011;12311;50.866;4.332;2023-08-08T07:37:02;5.45;;;1.52;;
24151;SDS011;12311;50.866;4.332;2023-08-08T07:39:28;7.88;;;1.50;;
24151;SDS011;12311;50.866;4.332;2023-08-08T07:41:54;3.90;;;1.77;;
24151;SDS011;12311;50.866;4.332;2023-08-08T07:44:19;3.50;;;1.42;;
24151;SDS011;12311;50.866;4.332;2023-08-08T07:46:45;3.40;;;1.60;;
24151;SDS011;12311;50.866;4.332;2023-08-08T07:49:11;7.00;;;1.25;;
24151;SDS011;12311;50.866;4.332;2023-08-08T07:51:36;4.57;;;1.23;;
24151;SDS011;12311;50.866;4.332;2023-08-08T07:54:02;5.70;;;2.47;;
24151;SDS011;12311;50.866;4.332;2023-08-08T07:56:30;2.20;;;1.10;;
24151;SDS011;12311;50.866;4.332;2023-08-08T07:58:56;2.00;;;1.20;;
24151;SDS011;12311;50.866;4.332;2023-08-08T08:01:21;3.35;;;1.13;;
24151;SDS011;12311;50.866;4.332;2023-08-08T08:03:48;4.35;;;1.92;;
24151;SDS011;12311;50.866;4.332;2023-08-08T08:06:13;3.88;;;1.45;;
24151;SDS011;12311;50.866;4.332;2023-08-08T08:08:39;4.20;;;1.58;;
24151;SDS011;12311;50.866;4.332;2023-08-08T08:11:05;6.05;;;1.85;;
24151;SDS011;12311;50.866;4.332;2023-08-08T08:13:30;5.10;;;2.58;;
24151;SDS011;12311;50.866;4.332;2023-08-08T08:15:56;2.53;;;1.63;;
24151;SDS011;12311;50.866;4.332;2023-08-08T08:18:23;3.65;;;1.50;;
24151;SDS011;12311;50.866;4.332;2023-08-08T08:20:48;4.25;;;1.02;;
24151;SDS011;12311;50.866;4.332;2023-08-08T08:23:14;2.28;;;1.23;;
24151;SDS011;12311;50.866;4.332;2023-08-08T08:25:40;6.82;;;1.73;;
24151;SDS011;12311;50.866;4.332;2023-08-08T08:28:06;3.20;;;1.20;;
24151;SDS011;12311;50.866;4.332;2023-08-08T08:30:33;5.97;;;1.85;;
24151;SDS011;12311;50.866;4.332;2023-08-08T08:32:58;8.10;;;2.08;;
24151;SDS011;12311;50.866;4.332;2023-08-08T08:35:25;3.20;;;1.15;;
24151;SDS011;12311;50.866;4.332;2023-08-08T08:37:51;2.13;;;1.13;;
24151;SDS011;12311;50.866;4.332;2023-08-08T08:40:17;3.22;;;1.40;;
24151;SDS011;12311;50.866;4.332;2023-08-08T08:42:43;3.25;;;1.20;;
24151;SDS011;12311;50.866;4.332;2023-08-08T08:45:11;1.80;;;0.80;;
24151;SDS011;12311;50.866;4.332;2023-08-08T08:47:39;2.25;;;1.15;;
24151;SDS011;12311;50.866;4.332;2023-08-08T08:50:07;7.07;;;1.05;;
24151;SDS011;12311;50.866;4.332;2023-08-08T08:52:32;3.90;;;1.75;;
24151;SDS011;12311;50.866;4.332;2023-08-08T08:54:58;4.20;;;1.10;;
24151;SDS011;12311;50.866;4.332;2023-08-08T08:57:24;1.67;;;1.17;;
24151;SDS011;12311;50.866;4.332;2023-08-08T08:59:51;2.55;;;1.20;;
24151;SDS011;12311;50.866;4.332;2023-08-08T09:02:17;10.25;;;1.23;;
24151;SDS011;12311;50.866;4.332;2023-08-08T09:04:44;7.50;;;1.73;;
24151;SDS011;12311;50.866;4.332;2023-08-08T09:07:10;2.80;;;1.10;;
24151;SDS011;12311;50.866;4.332;2023-08-08T09:09:37;3.10;;;0.88;;
24151;SDS011;12311;50.866;4.332;2023-08-08T09:12:04;5.68;;;1.25;;
24151;SDS011;12311;50.866;4.332;2023-08-08T09:14:30;2.80;;;0.90;;
24151;SDS011;12311;50.866;4.332;2023-08-08T09:16:56;2.75;;;1.13;;
24151;SDS011;12311;50.866;4.332;2023-08-08T09:19:23;2.42;;;1.42;;
24151;SDS011;12311;50.866;4.332;2023-08-08T09:21:50;4.35;;;1.30;;
24151;SDS011;12311;50.866;4.332;2023-08-08T09:24:17;2.90;;;1.30;;
24151;SDS011;12311;50.866;4.332;2023-08-08T09:26:43;3.08;;;1.25;;
24151;SDS011;12311;50.866;4.332;2023-08-08T09:29:13;1.13;;;0.90;;
24151;SDS011;12311;50.866;4.332;2023-08-08T09:31:39;8.02;;;1.02;;
24151;SDS011;12311;50.866;4.332;2023-08-08T09:34:06;7.03;;;2.10;;
24151;SDS011;12311;50.866;4.332;2023-08-08T09:36:32;6.15;;;1.45;;
24151;SDS011;12311;50.866;4.332;2023-08-08T09:39:00;1.15;;;0.82;;
24151;SDS011;12311;50.866;4.332;2023-08-08T09:41:26;2.30;;;0.70;;
24151;SDS011;12311;50.866;4.332;2023-08-08T09:43:53;4.10;;;1.55;;
24151;SDS011;12311;50.866;4.332;2023-08-08T09:46:19;2.65;;;0.80;;
24151;SDS011;12311;50.866;4.332;2023-08-08T09:48:45;1.65;;;0.93;;
24151;SDS011;12311;50.866;4.332;2023-08-08T09:51:12;2.88;;;0.82;;
24151;SDS011;12311;50.866;4.332;2023-08-08T09:53:39;2.78;;;0.85;;
24151;SDS011;12311;50.866;4.332;2023-08-08T09:56:05;1.30;;;0.75;;
24151;SDS011;12311;50.866;4.332;2023-08-08T09:58:32;5.18;;;0.90;;
24151;SDS011;12311;50.866;4.332;2023-08-08T10:00:59;2.03;;;1.10;;
24151;SDS011;12311;50.866;4.332;2023-08-08T10:03:26;12.07;;;1.42;;
24151;SDS011;12311;50.866;4.332;2023-08-08T10:05:53;3.40;;;0.98;;
24151;SDS011;12311;50.866;4.332;2023-08-08T10:08:19;0.70;;;0.70;;
24151;SDS011;12311;50.866;4.332;2023-08-08T10:10:46;0.93;;;0.85;;
24151;SDS011;12311;50.866;4.332;2023-08-08T10:13:24;1.83;;;0.80;;
24151;SDS011;12311;50.866;4.332;2023-08-08T10:15:52;5.15;;;1.38;;
24151;SDS011;12311;50.866;4.332;2023-08-08T10:18:20;5.57;;;1.02;;
24151;SDS011;12311;50.866;4.332;2023-08-08T10:20:47;0.63;;;0.63;;
24151;SDS011;12311;50.866;4.332;2023-08-08T10:23:15;1.85;;;0.73;;
24151;SDS011;12311;50.866;4.332;2023-08-08T10:25:45;6.93;;;1.15;;
24151;SDS011;12311;50.866;4.332;2023-08-08T10:28:17;1.35;;;0.70;;
24151;SDS011;12311;50.866;4.332;2023-08-08T10:30:52;1.08;;;0.60;;
24151;SDS011;12311;50.866;4.332;2023-08-08T10:33:24;1.55;;;0.73;;
24151;SDS011;12311;50.866;4.332;2023-08-08T10:35:56;2.75;;;0.90;;
24151;SDS011;12311;50.866;4.332;2023-08-08T10:38:26;5.72;;;1.15;;
24151;SDS011;12311;50.866;4.332;2023-08-08T10:41:03;3.90;;;0.90;;
24151;SDS011;12311;50.866;4.332;2023-08-08T10:43:29;0.98;;;0.70;;
24151;SDS011;12311;50.866;4.332;2023-08-08T10:46:02;2.40;;;1.05;;
24151;SDS011;12311;50.866;4.332;2023-08-08T10:48:28;0.55;;;0.50;;
24151;SDS011;12311;50.866;4.332;2023-08-08T10:50:57;1.80;;;0.82;;
24151;SDS011;12311;50.866;4.332;2023-08-08T10:53:27;2.58;;;0.77;;
24151;SDS011;12311;50.866;4.332;2023-08-08T10:55:58;1.25;;;0.68;;
24151;SDS011;12311;50.866;4.332;2023-08-08T10:58:34;1.23;;;0.73;;
24151;SDS011;12311;50.866;4.332;2023-08-08T11:01:01;2.25;;;0.75;;
24151;SDS011;12311;50.866;4.332;2023-08-08T11:03:28;0.70;;;0.45;;
24151;SDS011;12311;50.866;4.332;2023-08-08T11:05:55;2.47;;;0.63;;
24151;SDS011;12311;50.866;4.332;2023-08-08T11:08:21;0.88;;;0.70;;
24151;SDS011;12311;50.866;4.332;2023-08-08T11:10:50;1.58;;;0.75;;
24151;SDS011;12311;50.866;4.332;2023-08-08T11:13:17;2.63;;;0.90;;
24151;SDS011;12311;50.866;4.332;2023-08-08T11:15:45;0.80;;;0.60;;
24151;SDS011;12311;50.866;4.332;2023-08-08T11:18:12;0.80;;;0.60;;
24151;SDS011;12311;50.866;4.332;2023-08-08T11:20:38;2.88;;;0.57;;
24151;SDS011;12311;50.866;4.332;2023-08-08T11:23:04;0.40;;;0.40;;
24151;SDS011;12311;50.866;4.332;2023-08-08T11:25:35;3.22;;;0.60;;
24151;SDS011;12311;50.866;4.332;2023-08-08T11:28:02;0.50;;;0.47;;
24151;SDS011;12311;50.866;4.332;2023-08-08T11:30:32;1.33;;;0.70;;
24151;SDS011;12311;50.866;4.332;2023-08-08T11:32:59;1.73;;;0.55;;
24151;SDS011;12311;50.866;4.332;2023-08-08T11:35:26;1.15;;;0.60;;
24151;SDS011;12311;50.866;4.332;2023-08-08T11:37:55;1.25;;;0.60;;
24151;SDS011;12311;50.866;4.332;2023-08-08T11:40:23;15.13;;;1.40;;
24151;SDS011;12311;50.866;4.332;2023-08-08T11:42:51;4.13;;;0.50;;
24151;SDS011;12311;50.866;4.332;2023-08-08T11:45:18;0.93;;;0.55;;
24151;SDS011;12311;50.866;4.332;2023-08-08T11:47:47;0.70;;;0.60;;
24151;SDS011;12311;50.866;4.332;2023-08-08T11:50:14;0.47;;;0.38;;
24151;SDS011;12311;50.866;4.332;2023-08-08T11:52:40;0.88;;;0.50;;
24151;SDS011;12311;50.866;4.332;2023-08-08T11:55:08;0.40;;;0.40;;
24151;SDS011;12311;50.866;4.332;2023-08-08T11:57:38;0.98;;;0.60;;
24151;SDS011;12311;50.866;4.332;2023-08-08T12:00:06;0.60;;;0.50;;
24151;SDS011;12311;50.866;4.332;2023-08-08T12:02:33;2.00;;;0.82;;
24151;SDS011;12311;50.866;4.332;2023-08-08T12:05:06;0.80;;;0.60;;
24151;SDS011;12311;50.866;4.332;2023-08-08T12:07:33;2.43;;;0.80;;
24151;SDS011;12311;50.866;4.332;2023-08-08T12:10:03;2.65;;;0.75;;
24151;SDS011;12311;50.866;4.332;2023-08-08T12:12:31;0.60;;;0.57;;
24151;SDS011;12311;50.866;4.332;2023-08-08T12:15:04;2.85;;;0.65;;
24151;SDS011;12311;50.866;4.332;2023-08-08T12:17:32;4.28;;;0.60;;
24151;SDS011;12311;50.866;4.332;2023-08-08T12:20:02;0.95;;;0.55;;
24151;SDS011;12311;50.866;4.332;2023-08-08T12:22:30;0.68;;;0.40;;
24151;SDS011;12311;50.866;4.332;2023-08-08T12:24:56;0.90;;;0.60;;
24151;SDS011;12311;50.866;4.332;2023-08-08T12:27:22;0.77;;;0.52;;
24151;SDS011;12311;50.866;4.332;2023-08-08T12:29:48;0.40;;;0.40;;
24151;SDS011;12311;50.866;4.332;2023-08-08T12:32:13;3.92;;;0.98;;
24151;SDS011;12311;50.866;4.332;2023-08-08T12:34:39;3.13;;;0.70;;
24151;SDS011;12311;50.866;4.332;2023-08-08T12:37:05;1.52;;;0.60;;
24151;SDS011;12311;50.866;4.332;2023-08-08T12:39:32;0.65;;;0.40;;
24151;SDS011;12311;50.866;4.332;2023-08-08T12:41:58;1.45;;;0.68;;
24151;SDS011;12311;50.866;4.332;2023-08-08T12:44:23;1.95;;;0.65;;
24151;SDS011;12311;50.866;4.332;2023-08-08T12:46:49;0.98;;;0.50;;
24151;SDS011;12311;50.866;4.332;2023-08-08T12:49:15;0.63;;;0.50;;
24151;SDS011;12311;50.866;4.332;2023-08-08T12:51:41;1.85;;;0.60;;
24151;SDS011;12311;50.866;4.332;2023-08-08T12:54:06;1.10;;;0.52;;
24151;SDS011;12311;50.866;4.332;2023-08-08T12:56:32;2.08;;;0.65;;
24151;SDS011;12311;50.866;4.332;2023-08-08T12:58:58;1.42;;;0.63;;
24151;SDS011;12311;50.866;4.332;2023-08-08T13:01:24;3.38;;;0.82;;
24151;SDS011;12311;50.866;4.332;2023-08-08T13:03:50;3.15;;;0.40;;
24151;SDS011;12311;50.866;4.332;2023-08-08T13:06:16;1.05;;;0.73;;
24151;SDS011;12311;50.866;4.332;2023-08-08T13:08:42;1.70;;;0.40;;
24151;SDS011;12311;50.866;4.332;2023-08-08T13:11:07;0.77;;;0.50;;
24151;SDS011;12311;50.866;4.332;2023-08-08T13:13:33;2.83;;;0.50;;
24151;SDS011;12311;50.866;4.332;2023-08-08T13:15:59;1.27;;;0.40;;
24151;SDS011;12311;50.866;4.332;2023-08-08T13:18:25;1.23;;;0.50;;
24151;SDS011;12311;50.866;4.332;2023-08-08T13:20:50;1.67;;;0.57;;
24151;SDS011;12311;50.866;4.332;2023-08-08T13:23:17;0.75;;;0.50;;
24151;SDS011;12311;50.866;4.332;2023-08-08T13:25:43;0.60;;;0.40;;
24151;SDS011;12311;50.866;4.332;2023-08-08T13:28:09;1.58;;;0.52;;
24151;SDS011;12311;50.866;4.332;2023-08-08T13:30:35;0.55;;;0.50;;
24151;SDS011;12311;50.866;4.332;2023-08-08T13:33:01;3.05;;;1.08;;
24151;SDS011;12311;50.866;4.332;2023-08-08T13:35:27;1.50;;;0.60;;
24151;SDS011;12311;50.866;4.332;2023-08-08T13:37:52;5.47;;;0.80;;
24151;SDS011;12311;50.866;4.332;2023-08-08T13:40:19;6.95;;;1.08;;
24151;SDS011;12311;50.866;4.332;2023-08-08T13:42:45;3.25;;;0.68;;
24151;SDS011;12311;50.866;4.332;2023-08-08T13:45:15;0.63;;;0.47;;
24151;SDS011;12311;50.866;4.332;2023-08-08T13:47:42;1.10;;;0.68;;
24151;SDS011;12311;50.866;4.332;2023-08-08T13:50:07;0.88;;;0.52;;
24151;SDS011;12311;50.866;4.332;2023-08-08T13:52:33;0.63;;;0.60;;
24151;SDS011;12311;50.866;4.332;2023-08-08T13:54:59;0.43;;;0.40;;
24151;SDS011;12311;50.866;4.332;2023-08-08T13:57:25;2.63;;;0.50;;
24151;SDS011;12311;50.866;4.332;2023-08-08T13:59:50;2.55;;;0.50;;
24151;SDS011;12311;50.866;4.332;2023-08-08T14:02:16;1.08;;;0.57;;
24151;SDS011;12311;50.866;4.332;2023-08-08T14:04:43;1.13;;;0.52;;
24151;SDS011;12311;50.866;4.332;2023-08-08T14:07:09;1.52;;;0.55;;
24151;SDS011;12311;50.866;4.332;2023-08-08T14:09:37;3.80;;;0.40;;
24151;SDS011;12311;50.866;4.332;2023-08-08T14:12:03;1.20;;;0.45;;
24151;SDS011;12311;50.866;4.332;2023-08-08T14:14:29;0.90;;;0.47;;
24151;SDS011;12311;50.866;4.332;2023-08-08T14:16:54;1.27;;;0.60;;
24151;SDS011;12311;50.866;4.332;2023-08-08T14:19:20;0.73;;;0.43;;
24151;SDS011;12311;50.866;4.332;2023-08-08T14:21:46;1.88;;;0.55;;
24151;SDS011;12311;50.866;4.332;2023-08-08T14:24:11;0.65;;;0.40;;
24151;SDS011;12311;50.866;4.332;2023-08-08T14:26:37;0.52;;;0.40;;
24151;SDS011;12311;50.866;4.332;2023-08-08T14:29:03;1.15;;;0.35;;
24151;SDS011;12311;50.866;4.332;2023-08-08T14:31:29;2.85;;;0.40;;
24151;SDS011;12311;50.866;4.332;2023-08-08T14:33:55;1.02;;;0.70;;
24151;SDS011;12311;50.866;4.332;2023-08-08T14:36:21;0.88;;;0.30;;
24151;SDS011;12311;50.866;4.332;2023-08-08T14:38:47;0.75;;;0.52;;
24151;SDS011;12311;50.866;4.332;2023-08-08T14:41:12;1.20;;;0.43;;
24151;SDS011;12311;50.866;4.332;2023-08-08T14:43:38;0.57;;;0.50;;
24151;SDS011;12311;50.866;4.332;2023-08-08T14:46:04;1.15;;;0.43;;
24151;SDS011;12311;50.866;4.332;2023-08-08T14:48:30;1.25;;;0.32;;